createdAt,value
2022-10-18T00:00:44.880Z,14.15
2022-10-18T00:03:11.763Z,14.02
2022-10-18T00:05:39.183Z,14.04
2022-10-18T00:08:06.041Z,14.00
2022-10-18T00:10:32.925Z,13.89
2022-10-18T00:12:59.780Z,13.92
2022-10-18T00:15:26.868Z,13.87
2022-10-18T00:17:53.761Z,13.83
2022-10-18T00:20:20.601Z,13.80
2022-10-18T00:22:47.484Z,13.80
2022-10-18T00:25:14.340Z,13.79
2022-10-18T00:27:41.181Z,13.78
2022-10-18T00:30:08.704Z,13.79
2022-10-18T00:32:42.202Z,13.81
2022-10-18T00:35:09.600Z,13.88
2022-10-18T00:37:36.423Z,13.92
2022-10-18T00:40:03.646Z,13.94
2022-10-18T00:42:32.419Z,14.12
2022-10-18T00:45:04.280Z,14.22
2022-10-18T00:47:31.250Z,14.30
2022-10-18T00:49:58.465Z,14.38
2022-10-18T00:52:39.719Z,14.44
2022-10-18T00:55:06.901Z,14.38
2022-10-18T00:57:34.082Z,14.54
2022-10-18T01:00:00.942Z,14.71
2022-10-18T01:02:28.058Z,14.78
2022-10-18T01:04:55.182Z,14.77
2022-10-18T01:07:33.981Z,14.87
2022-10-18T01:10:51.745Z,14.89
2022-10-18T01:13:42.984Z,14.92
2022-10-18T01:16:26.303Z,14.86
2022-10-18T01:19:17.845Z,14.90
2022-10-18T01:21:56.300Z,14.88
2022-10-18T01:24:23.082Z,14.88
2022-10-18T01:27:20.961Z,14.85
2022-10-18T01:30:07.965Z,14.84
2022-10-18T01:32:40.063Z,14.75
2022-10-18T01:35:12.929Z,14.80
2022-10-18T01:37:39.855Z,14.76
2022-10-18T01:40:07.481Z,14.82
2022-10-18T01:42:34.384Z,14.77
2022-10-18T01:45:01.638Z,14.86
2022-10-18T01:49:14.944Z,14.89
2022-10-18T01:51:41.800Z,14.91
2022-10-18T01:54:09.744Z,14.93
2022-10-18T01:56:56.941Z,14.92
2022-10-18T01:59:46.500Z,14.92
2022-10-18T02:02:33.461Z,14.91
2022-10-18T02:05:23.844Z,14.91
2022-10-18T02:08:22.064Z,14.85
2022-10-18T02:11:09.380Z,14.86
2022-10-18T02:13:40.601Z,14.84
2022-10-18T02:16:16.344Z,14.80
2022-10-18T02:18:55.399Z,14.80
2022-10-18T02:21:22.300Z,14.72
2022-10-18T02:23:49.246Z,14.73
2022-10-18T02:26:16.123Z,14.69
2022-10-18T02:28:42.991Z,14.71
2022-10-18T02:31:28.772Z,14.69
2022-10-18T02:34:18.626Z,14.64
2022-10-18T02:36:59.999Z,14.62
2022-10-18T02:39:33.002Z,14.59
2022-10-18T02:42:00.036Z,14.54
2022-10-18T02:44:26.943Z,14.53
2022-10-18T02:46:53.842Z,14.49
2022-10-18T02:49:20.640Z,14.49
2022-10-18T02:51:47.461Z,14.47
2022-10-18T02:54:14.324Z,14.45
2022-10-18T02:56:41.128Z,14.44
2022-10-18T02:59:08.324Z,14.41
2022-10-18T03:01:36.379Z,14.39
2022-10-18T03:04:03.985Z,14.31
2022-10-18T03:06:31.260Z,14.32
2022-10-18T03:08:58.198Z,14.27
2022-10-18T03:11:25.149Z,14.26
2022-10-18T03:13:52.238Z,14.25
2022-10-18T03:16:19.560Z,14.20
2022-10-18T03:18:46.387Z,14.15
2022-10-18T03:21:13.259Z,14.13
2022-10-18T03:23:41.841Z,14.07
2022-10-18T03:26:09.121Z,13.96
2022-10-18T03:28:36.018Z,13.99
2022-10-18T03:31:04.071Z,13.95
2022-10-18T03:33:31.718Z,13.92
2022-10-18T03:35:58.660Z,13.91
2022-10-18T03:38:25.840Z,13.89
2022-10-18T03:40:52.630Z,13.83
2022-10-18T03:43:19.520Z,13.84
2022-10-18T03:45:46.321Z,13.79
2022-10-18T03:48:13.220Z,13.75
2022-10-18T03:50:40.102Z,13.74
2022-10-18T03:53:06.985Z,13.70
2022-10-18T03:55:33.820Z,13.66
2022-10-18T03:58:00.683Z,13.59
2022-10-18T04:00:27.521Z,13.59
2022-10-18T04:02:55.977Z,13.56
2022-10-18T04:05:28.089Z,13.54
2022-10-18T04:07:55.126Z,13.51
2022-10-18T04:10:21.999Z,13.48
2022-10-18T04:12:48.819Z,13.46
2022-10-18T04:15:15.721Z,13.39
2022-10-18T04:17:42.808Z,13.40
2022-10-18T04:20:10.025Z,13.37
2022-10-18T04:22:36.868Z,13.39
2022-10-18T04:25:04.204Z,13.37
2022-10-18T04:27:31.231Z,13.34
2022-10-18T04:29:58.181Z,13.36
2022-10-18T04:32:26.802Z,13.35
2022-10-18T04:34:53.623Z,13.33
2022-10-18T04:37:20.462Z,13.32
2022-10-18T04:39:51.277Z,13.28
2022-10-18T04:42:20.906Z,13.29
2022-10-18T04:44:47.843Z,13.24
2022-10-18T04:47:14.828Z,13.26
2022-10-18T04:49:41.600Z,13.27
2022-10-18T04:52:08.843Z,13.25
2022-10-18T04:54:35.743Z,13.19
2022-10-18T04:57:02.645Z,13.21
2022-10-18T04:59:29.581Z,13.16
2022-10-18T05:01:56.576Z,13.20
2022-10-18T05:04:23.506Z,13.16
2022-10-18T05:06:50.320Z,13.20
2022-10-18T05:09:17.142Z,13.21
2022-10-18T05:11:43.920Z,13.27
2022-10-18T05:14:11.022Z,13.31
2022-10-18T05:16:37.842Z,13.36
2022-10-18T05:19:05.734Z,13.39
2022-10-18T05:21:33.006Z,13.40
2022-10-18T05:23:59.847Z,13.40
2022-10-18T05:26:26.746Z,13.38
2022-10-18T05:28:53.617Z,13.40
2022-10-18T05:31:21.360Z,13.39
2022-10-18T05:33:48.205Z,13.41
2022-10-18T05:36:15.201Z,13.41
2022-10-18T05:38:45.602Z,13.41
2022-10-18T05:41:12.589Z,13.47
2022-10-18T05:43:40.060Z,13.49
2022-10-18T05:46:13.474Z,13.47
2022-10-18T05:48:43.001Z,13.52
2022-10-18T05:51:09.811Z,13.56
2022-10-18T05:53:37.857Z,13.60
2022-10-18T05:56:05.829Z,13.63
2022-10-18T05:58:32.760Z,13.67
2022-10-18T06:01:01.080Z,13.67
2022-10-18T06:03:28.494Z,13.67
2022-10-18T06:06:00.383Z,13.75
2022-10-18T06:08:27.581Z,13.78
2022-10-18T06:10:54.546Z,13.86
2022-10-18T06:13:21.364Z,13.88
2022-10-18T06:15:48.181Z,13.87
2022-10-18T06:18:14.964Z,13.89
2022-10-18T06:20:41.787Z,13.91
2022-10-18T06:23:08.622Z,13.93
2022-10-18T06:25:35.448Z,13.96
2022-10-18T06:28:07.737Z,14.03
2022-10-18T06:30:37.197Z,14.04
2022-10-18T06:33:04.042Z,14.14
2022-10-18T06:35:31.012Z,14.12
2022-10-18T06:37:57.931Z,14.20
2022-10-18T06:40:24.957Z,14.22
2022-10-18T06:43:00.180Z,14.29
2022-10-18T06:45:27.581Z,14.37
2022-10-18T06:47:54.400Z,14.43
2022-10-18T06:50:21.241Z,14.47
2022-10-18T06:52:48.963Z,14.53
2022-10-18T06:55:15.823Z,14.56
2022-10-18T06:57:42.620Z,14.67
2022-10-18T07:00:10.041Z,14.68
2022-10-18T07:02:37.900Z,14.75
2022-10-18T07:05:04.983Z,14.80
2022-10-18T07:07:32.081Z,14.90
2022-10-18T07:09:59.203Z,15.01
2022-10-18T07:12:26.004Z,15.12
2022-10-18T07:14:52.800Z,15.22
2022-10-18T07:17:19.663Z,15.31
2022-10-18T07:19:46.529Z,15.43
2022-10-18T07:22:13.321Z,15.52
2022-10-18T07:24:40.254Z,15.65
2022-10-18T07:27:07.259Z,15.74
2022-10-18T07:29:34.422Z,15.89
2022-10-18T07:32:01.220Z,16.03
2022-10-18T07:34:29.000Z,16.15
2022-10-18T07:36:55.940Z,16.23
2022-10-18T07:39:22.823Z,16.35
2022-10-18T07:41:49.621Z,16.49
2022-10-18T07:44:16.480Z,16.60
2022-10-18T07:46:43.401Z,16.68
2022-10-18T07:49:10.373Z,16.83
2022-10-18T07:51:37.248Z,16.88
2022-10-18T07:54:04.142Z,16.86
2022-10-18T07:56:31.063Z,16.91
2022-10-18T07:58:57.862Z,16.87
2022-10-18T08:01:25.297Z,16.78
2022-10-18T08:03:52.507Z,16.78
2022-10-18T08:06:19.940Z,16.76
2022-10-18T08:08:46.961Z,16.72
2022-10-18T08:11:22.202Z,16.75
2022-10-18T08:13:49.119Z,16.75
2022-10-18T08:16:18.026Z,16.73
2022-10-18T08:18:44.942Z,16.76
2022-10-18T08:21:12.651Z,16.75
2022-10-18T08:23:39.828Z,16.78
2022-10-18T08:26:11.439Z,16.89
2022-10-18T08:28:38.355Z,17.02
2022-10-18T08:31:06.302Z,17.20
2022-10-18T08:33:34.043Z,17.41
2022-10-18T08:36:02.022Z,17.56
2022-10-18T08:38:34.380Z,17.76
2022-10-18T08:41:06.861Z,17.98
2022-10-18T08:43:39.227Z,18.18
2022-10-18T08:46:06.025Z,18.40
2022-10-18T08:48:48.340Z,18.58
2022-10-18T08:51:35.260Z,18.82
2022-10-18T08:54:07.961Z,19.03
2022-10-18T08:56:34.801Z,19.31
2022-10-18T08:59:04.173Z,19.75
2022-10-18T09:01:41.275Z,20.13
2022-10-18T09:04:14.538Z,20.67
2022-10-18T09:06:50.384Z,21.16
2022-10-18T09:09:20.502Z,21.56
2022-10-18T09:12:05.999Z,21.81
2022-10-18T09:14:49.540Z,21.91
2022-10-18T09:17:34.661Z,21.94
2022-10-18T09:20:17.790Z,21.97
2022-10-18T09:23:10.592Z,21.97
2022-10-18T09:25:47.445Z,22.05
2022-10-18T09:28:17.004Z,22.62
2022-10-18T09:31:12.568Z,22.71
2022-10-18T09:33:50.811Z,22.43
2022-10-18T09:36:26.220Z,22.45
2022-10-18T09:38:57.304Z,23.12
2022-10-18T09:41:34.449Z,24.28
2022-10-18T09:44:22.262Z,26.25
2022-10-18T09:47:00.341Z,28.48
2022-10-18T09:49:34.561Z,29.56
2022-10-18T09:52:02.341Z,28.98
2022-10-18T09:54:38.287Z,28.31
2022-10-18T09:57:24.582Z,27.90
2022-10-18T09:59:51.548Z,27.36
2022-10-18T10:02:22.087Z,27.36
2022-10-18T10:04:49.600Z,27.74
2022-10-18T10:07:34.979Z,28.19
2022-10-18T10:10:08.723Z,28.83
2022-10-18T10:12:39.925Z,28.66
2022-10-18T10:15:08.641Z,28.46
2022-10-18T10:17:35.568Z,27.66
2022-10-18T10:20:04.923Z,26.63
2022-10-18T10:22:36.630Z,25.27
2022-10-18T10:25:03.619Z,24.30
2022-10-18T10:27:32.712Z,23.60
2022-10-18T10:30:05.822Z,23.11
2022-10-18T10:32:45.641Z,22.65
2022-10-18T10:36:00.150Z,22.21
2022-10-18T10:38:29.204Z,22.17
2022-10-18T10:40:56.083Z,22.38
2022-10-18T10:43:40.720Z,22.40
2022-10-18T10:46:14.782Z,22.36
2022-10-18T10:48:49.680Z,22.42
2022-10-18T10:51:37.283Z,22.45
2022-10-18T10:54:13.445Z,22.57
2022-10-18T10:56:59.341Z,22.66
2022-10-18T10:59:27.942Z,22.78
2022-10-18T11:02:19.277Z,22.71
2022-10-18T11:04:47.023Z,22.51
2022-10-18T11:07:43.701Z,22.26
2022-10-18T11:10:10.459Z,22.03
2022-10-18T11:12:54.862Z,21.79
2022-10-18T11:15:36.063Z,21.56
2022-10-18T11:18:17.449Z,21.54
2022-10-18T11:21:11.507Z,21.48
2022-10-18T11:23:39.348Z,21.34
2022-10-18T11:26:12.200Z,21.14
2022-10-18T11:28:47.907Z,20.96
2022-10-18T11:31:18.981Z,20.83
2022-10-18T11:34:20.342Z,20.75
2022-10-18T11:37:31.044Z,20.60
2022-10-18T11:40:03.827Z,20.44
2022-10-18T11:42:39.980Z,20.30
2022-10-18T11:45:07.014Z,20.12
2022-10-18T11:48:12.923Z,19.95
2022-10-18T11:50:51.424Z,19.79
2022-10-18T11:53:36.702Z,19.71
2022-10-18T11:56:12.163Z,19.64
2022-10-18T11:59:03.721Z,19.64
2022-10-18T12:01:33.225Z,19.62
2022-10-18T12:04:40.934Z,19.62
2022-10-18T12:07:15.306Z,19.54
2022-10-18T12:09:46.381Z,19.45
2022-10-18T12:12:15.223Z,19.26
2022-10-18T12:14:48.782Z,19.08
2022-10-18T12:17:50.037Z,18.80
2022-10-18T12:20:33.884Z,18.56
2022-10-18T12:23:15.864Z,18.32
2022-10-18T12:25:45.921Z,18.08
2022-10-18T12:28:15.406Z,17.92
2022-10-18T12:30:55.827Z,17.76
2022-10-18T12:33:28.639Z,17.67
2022-10-18T12:36:14.545Z,17.55
2022-10-18T12:38:42.546Z,17.40
2022-10-18T12:41:30.901Z,17.29
2022-10-18T12:44:07.662Z,17.14
2022-10-18T12:46:54.139Z,16.93
2022-10-18T12:49:26.501Z,16.77
2022-10-18T12:52:00.760Z,16.66
2022-10-18T12:54:39.803Z,16.51
2022-10-18T12:57:17.810Z,16.46
2022-10-18T12:59:44.599Z,16.27
2022-10-18T13:02:25.409Z,16.27
2022-10-18T13:04:52.251Z,16.18
2022-10-18T13:07:43.580Z,16.09
2022-10-18T13:10:10.388Z,16.14
2022-10-18T13:12:37.125Z,16.10
2022-10-18T13:15:34.173Z,16.09
2022-10-18T13:18:14.845Z,16.08
2022-10-18T13:20:46.622Z,16.08
2022-10-18T13:23:38.152Z,16.10
2022-10-18T13:26:44.718Z,16.11
2022-10-18T13:29:48.944Z,16.12
2022-10-18T13:32:37.155Z,16.08
2022-10-18T13:35:04.042Z,15.98
2022-10-18T13:37:30.860Z,15.97
2022-10-18T13:40:22.542Z,15.90
2022-10-18T13:42:49.381Z,15.74
2022-10-18T13:45:31.602Z,15.78
2022-10-18T13:48:36.900Z,15.70
2022-10-18T13:51:20.762Z,15.61
2022-10-18T13:54:04.543Z,15.53
2022-10-18T13:56:34.522Z,15.48
2022-10-18T13:59:18.809Z,15.42
2022-10-18T14:01:53.345Z,15.36
2022-10-18T14:04:23.166Z,15.28
2022-10-18T14:06:50.025Z,15.22
2022-10-18T14:09:26.238Z,15.10
2022-10-18T14:12:17.487Z,15.09
2022-10-18T14:15:05.552Z,15.01
2022-10-18T14:17:43.000Z,14.96
2022-10-18T14:20:19.335Z,14.91
2022-10-18T14:23:17.963Z,14.85
2022-10-18T14:25:45.002Z,14.75
2022-10-18T14:28:21.697Z,14.71
2022-10-18T14:30:56.104Z,14.67
2022-10-18T14:33:26.865Z,14.60
2022-10-18T14:36:15.544Z,14.55
2022-10-18T14:38:53.365Z,14.50
2022-10-18T14:41:20.122Z,14.44
2022-10-18T14:43:48.245Z,14.38
2022-10-18T14:46:20.627Z,14.29
2022-10-18T14:49:00.586Z,14.21
2022-10-18T14:51:29.204Z,14.20
2022-10-18T14:53:56.125Z,14.11
2022-10-18T14:56:28.263Z,14.06
2022-10-18T14:58:56.382Z,14.00
2022-10-18T15:01:28.150Z,13.92
2022-10-18T15:04:13.040Z,13.84
2022-10-18T15:06:43.304Z,13.75
2022-10-18T15:09:10.142Z,13.66
2022-10-18T15:11:37.043Z,13.60
2022-10-18T15:14:08.828Z,13.50
2022-10-18T15:16:35.764Z,13.44
2022-10-18T15:19:18.699Z,13.40
2022-10-18T15:24:46.742Z,13.19
2022-10-18T15:27:21.200Z,13.08
2022-10-18T15:29:48.160Z,12.95
2022-10-18T15:32:34.018Z,12.85
2022-10-18T15:35:15.945Z,12.73
2022-10-18T15:37:44.384Z,12.66
2022-10-18T15:40:23.344Z,12.57
2022-10-18T15:42:54.644Z,12.47
2022-10-18T15:48:14.429Z,12.29
2022-10-18T15:50:43.032Z,12.16
2022-10-18T15:53:25.405Z,12.12
2022-10-18T15:56:00.880Z,12.01
2022-10-18T15:58:44.741Z,11.94
2022-10-18T16:01:32.654Z,11.86
2022-10-18T16:03:59.629Z,11.79
2022-10-18T16:06:26.447Z,11.64
2022-10-18T16:08:53.732Z,11.58
2022-10-18T16:11:24.899Z,11.50
2022-10-18T16:13:54.047Z,11.38
2022-10-18T16:16:27.508Z,11.30
2022-10-18T16:18:54.441Z,11.26
2022-10-18T16:21:31.485Z,11.20
2022-10-18T16:23:58.442Z,11.12
2022-10-18T16:26:25.522Z,11.13
2022-10-18T16:28:52.447Z,11.06
2022-10-18T16:31:27.109Z,11.05
2022-10-18T16:33:54.566Z,10.96
2022-10-18T16:36:23.143Z,10.90
2022-10-18T16:38:50.501Z,10.83
2022-10-18T16:41:17.460Z,10.74
2022-10-18T16:43:45.423Z,10.73
2022-10-18T16:46:20.620Z,10.71
2022-10-18T16:48:47.781Z,10.71
2022-10-18T16:51:14.643Z,10.67
2022-10-18T16:53:41.546Z,10.63
2022-10-18T16:56:14.079Z,10.57
2022-10-18T16:58:41.469Z,10.49
2022-10-18T17:01:20.041Z,10.54
2022-10-18T17:03:47.199Z,10.55
2022-10-18T17:06:20.784Z,10.61
2022-10-18T17:08:47.764Z,10.66
2022-10-18T17:11:15.222Z,10.63
2022-10-18T17:13:42.388Z,10.58
2022-10-18T17:16:24.726Z,10.55
2022-10-18T17:18:51.624Z,10.51
2022-10-18T17:21:18.624Z,10.45
2022-10-18T17:23:45.442Z,10.46
2022-10-18T17:26:30.701Z,10.36
2022-10-18T17:29:02.358Z,10.36
2022-10-18T17:31:29.971Z,10.26
2022-10-18T17:33:58.481Z,10.26
2022-10-18T17:36:25.401Z,10.22
2022-10-18T17:38:53.155Z,10.18
2022-10-18T17:41:20.060Z,10.18
2022-10-18T17:43:48.387Z,10.12
2022-10-18T17:46:15.641Z,10.10
2022-10-18T17:48:42.572Z,10.03
2022-10-18T17:51:10.827Z,9.96
2022-10-18T17:53:37.720Z,9.85
2022-10-18T17:56:04.825Z,9.71
2022-10-18T17:58:31.842Z,9.71
2022-10-18T18:01:08.166Z,9.67
2022-10-18T18:03:35.064Z,9.66
2022-10-18T18:06:31.387Z,9.63
2022-10-18T18:08:58.891Z,9.61
2022-10-18T18:11:25.865Z,9.56
2022-10-18T18:13:54.243Z,9.42
2022-10-18T18:16:22.507Z,9.37
2022-10-18T18:18:50.946Z,9.30
2022-10-18T18:21:17.821Z,9.27
2022-10-18T18:23:44.819Z,9.17
2022-10-18T18:26:11.722Z,9.13
2022-10-18T18:28:38.765Z,9.06
2022-10-18T18:31:09.744Z,9.00
2022-10-18T18:33:36.720Z,8.94
2022-10-18T18:36:04.991Z,8.92
2022-10-18T18:38:31.940Z,8.94
2022-10-18T18:41:06.763Z,8.93
2022-10-18T18:43:33.945Z,8.93
2022-10-18T18:46:00.920Z,8.93
2022-10-18T18:48:28.565Z,9.11
2022-10-18T18:50:55.462Z,9.28
2022-10-18T18:53:25.854Z,9.42
2022-10-18T18:55:54.112Z,9.56
2022-10-18T18:58:20.904Z,9.67
2022-10-18T19:00:47.781Z,9.69
2022-10-18T19:03:14.582Z,9.84
2022-10-18T19:05:41.427Z,9.93
2022-10-18T19:08:08.242Z,10.00
2022-10-18T19:10:35.040Z,10.01
2022-10-18T19:13:02.045Z,10.02
2022-10-18T19:15:29.068Z,10.12
2022-10-18T19:17:56.240Z,10.17
2022-10-18T19:20:23.228Z,10.21
2022-10-18T19:22:50.185Z,10.30
2022-10-18T19:25:17.083Z,10.31
2022-10-18T19:27:44.043Z,10.32
2022-10-18T19:30:11.742Z,10.43
2022-10-18T19:32:38.586Z,10.42
2022-10-18T19:35:05.600Z,10.49
2022-10-18T19:37:32.808Z,10.54
2022-10-18T19:40:00.026Z,10.47
2022-10-18T19:42:30.355Z,10.59
2022-10-18T19:44:58.202Z,10.62
2022-10-18T19:47:25.040Z,10.60
2022-10-18T19:49:53.904Z,10.59
2022-10-18T19:52:20.809Z,10.68
2022-10-18T19:54:49.037Z,10.69
2022-10-18T19:57:15.881Z,10.71
2022-10-18T19:59:42.728Z,10.71
2022-10-18T20:02:13.127Z,10.74
2022-10-18T20:04:40.005Z,10.75
2022-10-18T20:07:06.897Z,10.75
2022-10-18T20:09:33.992Z,10.79
2022-10-18T20:12:00.850Z,10.81
2022-10-18T20:14:27.746Z,10.79
2022-10-18T20:16:54.603Z,10.82
2022-10-18T20:19:21.520Z,10.73
2022-10-18T20:21:48.346Z,10.84
2022-10-18T20:24:15.219Z,10.85
2022-10-18T20:26:43.804Z,10.86
2022-10-18T20:29:10.900Z,10.87
2022-10-18T20:31:39.338Z,10.90
2022-10-18T20:34:11.475Z,10.92
2022-10-18T20:36:38.487Z,10.93
2022-10-18T20:39:05.470Z,10.90
2022-10-18T20:41:34.305Z,10.91
2022-10-18T20:44:02.638Z,10.96
2022-10-18T20:46:33.809Z,10.96
2022-10-18T20:49:00.704Z,10.95
2022-10-18T20:51:27.705Z,10.96
2022-10-18T20:53:54.682Z,10.96
2022-10-18T20:56:23.295Z,10.93
2022-10-18T20:58:51.063Z,10.87
2022-10-18T21:01:33.593Z,10.86
2022-10-18T21:04:01.582Z,10.82
2022-10-18T21:06:33.299Z,10.75
2022-10-18T21:09:26.700Z,10.64
2022-10-18T21:11:56.386Z,10.65
2022-10-18T21:14:23.866Z,10.68
2022-10-18T21:16:51.462Z,10.67
2022-10-18T21:19:23.182Z,10.70
2022-10-18T21:21:51.408Z,10.69
2022-10-18T21:24:18.781Z,10.73
2022-10-18T21:26:45.707Z,10.77
2022-10-18T21:29:12.824Z,10.75
2022-10-18T21:31:40.666Z,10.84
2022-10-18T21:34:12.823Z,10.87
2022-10-18T21:36:39.861Z,10.90
2022-10-18T21:39:08.192Z,10.86
2022-10-18T21:41:35.111Z,10.90
2022-10-18T21:44:05.559Z,10.89
2022-10-18T21:46:35.345Z,10.89
2022-10-18T21:49:02.183Z,10.88
2022-10-18T21:51:29.081Z,10.89
2022-10-18T21:53:57.023Z,10.92
2022-10-18T21:56:28.462Z,10.89
2022-10-18T21:58:55.603Z,10.77
2022-10-18T22:01:27.044Z,10.84
2022-10-18T22:03:54.882Z,10.77
2022-10-18T22:06:22.225Z,10.78
2022-10-18T22:08:53.760Z,10.78
2022-10-18T22:11:25.904Z,10.80
2022-10-18T22:13:53.160Z,10.78
2022-10-18T22:16:20.204Z,10.69
2022-10-18T22:18:47.580Z,10.63
2022-10-18T22:21:15.122Z,10.59
2022-10-18T22:23:42.722Z,10.56
2022-10-18T22:26:20.562Z,10.52
2022-10-18T22:28:47.559Z,10.42
2022-10-18T22:31:18.785Z,10.40
2022-10-18T22:33:45.709Z,10.34
2022-10-18T22:36:12.925Z,10.31
2022-10-18T22:38:40.002Z,10.29
2022-10-18T22:41:08.000Z,10.27
2022-10-18T22:43:35.048Z,10.29
2022-10-18T22:46:03.126Z,10.25
2022-10-18T22:48:30.163Z,10.16
2022-10-18T22:50:56.961Z,10.18
2022-10-18T22:53:23.780Z,10.23
2022-10-18T22:55:50.805Z,10.30
2022-10-18T22:58:17.820Z,10.34
2022-10-18T23:00:44.701Z,10.35
2022-10-18T23:03:11.580Z,10.33
2022-10-18T23:05:42.139Z,10.27
2022-10-18T23:08:09.440Z,10.21
2022-10-18T23:10:42.599Z,10.13
2022-10-18T23:13:10.661Z,10.08
2022-10-18T23:15:39.163Z,10.08
2022-10-18T23:18:06.022Z,9.99
2022-10-18T23:20:32.880Z,9.97
2022-10-18T23:22:59.741Z,9.91
2022-10-18T23:25:27.328Z,9.88
2022-10-18T23:27:54.261Z,9.87
2022-10-18T23:30:21.142Z,9.83
2022-10-18T23:32:47.964Z,9.87
2022-10-18T23:35:14.883Z,9.82
2022-10-18T23:37:41.665Z,9.77
2022-10-18T23:40:09.421Z,9.78
2022-10-18T23:42:36.260Z,9.71
2022-10-18T23:45:03.303Z,9.78
2022-10-18T23:47:30.378Z,9.81
2022-10-18T23:49:58.943Z,9.77
2022-10-18T23:52:25.763Z,9.83
2022-10-18T23:54:52.562Z,9.82
2022-10-18T23:57:19.363Z,9.79
2022-10-18T23:59:46.162Z,9.66
